Time;durP1;ratioP1;P1;durP2;ratioP2;P2;SDS_P1;SDS_P2;PMS_P1;PMS_P2;Temp;Humidity;BMP_temperature;BMP_pressure;BME280_temperature;BME280_humidity;BME280_pressure;Samples;Min_cycle;Max_cycle;Signal;HPM_P1;HPM_P2
2023/06/02 00:00:16;;;;;;;;;;;;;;;17.05;53.33;101198.56;4155275;28;20021;-69
2023/06/02 00:02:18;;;;;;;;;;;;;;;17.00;53.35;101193.75;4154508;28;20008;-69
2023/06/02 00:04:23;;;;;;;;;;;;;;;16.96;53.40;101205.28;4152477;28;20016;-69
2023/06/02 00:06:26;;;;;;;;;;;;;;;16.93;53.12;101210.13;4156204;28;20016;-69
2023/06/02 00:08:30;;;;;;;;;;;;;;;16.87;53.18;101208.22;4156346;28;20008;-69
2023/06/02 00:10:33;;;;;;;;;;;;;;;16.81;53.44;101211.75;4151469;28;19929;-69
2023/06/02 00:12:38;;;;;;;;;;;;;;;16.79;53.75;101205.66;4153840;28;20358;-69
2023/06/02 00:14:42;;;;;;;;;;;;;;;16.73;53.58;101209.22;4168025;28;20012;-69
2023/06/02 00:16:45;;;;;;;;;;;;;;;16.71;53.70;101211.31;4155325;28;20366;-70
2023/06/02 00:18:47;;;;;;;;;;;;;;;16.70;53.76;101209.63;4151537;28;20016;-69
2023/06/02 00:20:50;;;;;;;;;;;;;;;16.65;53.60;101204.78;4155009;28;20463;-69
2023/06/02 00:22:52;;;;;;;;;;;;;;;16.56;54.02;101217.75;4156807;28;20045;-69
2023/06/02 00:24:57;;;;;;;;;;;;;;;16.55;54.18;101207.91;4155195;28;20015;-69
2023/06/02 00:26:59;;;;;;;;;;;;;;;16.53;53.99;101220.88;4156484;28;20366;-69
2023/06/02 00:29:02;;;;;;;;;;;;;;;16.50;54.15;101215.84;4157741;28;20032;-69
2023/06/02 00:31:05;;;;;;;;;;;;;;;16.44;54.16;101211.25;4152870;28;20016;-69
2023/06/02 00:33:07;;;;;;;;;;;;;;;16.43;54.30;101209.53;4155702;28;20020;-69
2023/06/02 00:35:09;;;;;;;;;;;;;;;16.37;54.36;101208.47;4170552;28;20016;-69
2023/06/02 00:37:11;;;;;;;;;;;;;;;16.36;54.60;101214.13;4157777;28;20615;-69
2023/06/02 00:39:13;;;;;;;;;;;;;;;16.36;54.45;101214.97;4160738;28;20036;-69
2023/06/02 00:41:15;;;;;;;;;;;;;;;16.35;54.55;101204.28;4170757;28;20327;-69
2023/06/02 00:43:17;;;;;;;;;;;;;;;16.33;54.71;101206.34;4160096;28;20015;-69
2023/06/02 00:45:21;;;;;;;;;;;;;;;16.26;54.69;101198.16;4156279;28;20020;-69
2023/06/02 00:47:23;;;;;;;;;;;;;;;16.23;54.81;101206.75;4157755;28;20016;-69
2023/06/02 00:49:25;;;;;;;;;;;;;;;16.21;54.76;101209.66;4174031;28;20000;-69
2023/06/02 00:51:27;;;;;;;;;;;;;;;16.21;55.09;101206.94;4153996;28;20036;-69
2023/06/02 00:53:29;;;;;;;;;;;;;;;16.24;55.07;101208.44;4155841;28;20029;-69
2023/06/02 00:55:31;;;;;;;;;;;;;;;16.20;54.99;101213.41;4159293;28;20009;-69
2023/06/02 00:57:33;;;;;;;;;;;;;;;16.19;55.08;101209.03;4152849;28;20025;-69
2023/06/02 00:59:36;;;;;;;;;;;;;;;16.18;55.01;101207.34;4157145;28;20016;-69
2023/06/02 01:01:40;;;;;;;;;;;;;;;16.15;55.18;101204.19;4159865;28;20023;-69
2023/06/02 01:03:43;;;;;;;;;;;;;;;16.10;55.21;101210.25;4156419;28;20016;-69
2023/06/02 01:05:45;;;;;;;;;;;;;;;16.02;55.46;101216.69;4156304;28;20431;-69
2023/06/02 01:07:48;;;;;;;;;;;;;;;15.98;55.52;101217.31;4156414;28;20048;-69
2023/06/02 01:09:50;;;;;;;;;;;;;;;15.93;55.80;101215.19;4171762;28;20028;-69
2023/06/02 01:11:52;;;;;;;;;;;;;;;15.95;55.48;101217.72;4160155;28;20019;-69
2023/06/02 01:13:55;;;;;;;;;;;;;;;15.92;55.60;101213.50;4159539;28;20020;-69
2023/06/02 01:15:57;;;;;;;;;;;;;;;15.94;55.58;101218.75;4157163;28;20024;-69
2023/06/02 01:18:01;;;;;;;;;;;;;;;15.98;55.63;101211.84;4159058;28;20377;-69
2023/06/02 01:20:10;;;;;;;;;;;;;;;15.98;55.36;101215.41;4171425;28;20020;-69
2023/06/02 01:22:13;;;;;;;;;;;;;;;15.99;55.16;101211.66;4156091;28;19967;-69
2023/06/02 01:24:20;;;;;;;;;;;;;;;15.99;55.33;101219.00;4154667;28;19933;-69
2023/06/02 01:26:22;;;;;;;;;;;;;;;15.91;55.53;101214.56;4172717;28;20003;-68
2023/06/02 01:28:25;;;;;;;;;;;;;;;15.88;55.47;101217.69;4156182;28;20011;-69
2023/06/02 01:30:27;;;;;;;;;;;;;;;15.87;55.61;101224.16;4156811;28;20021;-69
2023/06/02 01:32:32;;;;;;;;;;;;;;;15.87;55.59;101223.31;4171849;28;20019;-68
2023/06/02 01:34:36;;;;;;;;;;;;;;;15.83;55.39;101218.28;4171711;28;19956;-68
2023/06/02 01:36:39;;;;;;;;;;;;;;;15.80;55.50;101220.56;4159137;28;20008;-70
2023/06/02 01:38:41;;;;;;;;;;;;;;;15.79;55.63;101224.31;4157073;28;20008;-68
2023/06/02 01:40:46;;;;;;;;;;;;;;;15.79;56.08;101233.31;4159277;28;20020;-68
2023/06/02 01:42:51;;;;;;;;;;;;;;;15.80;55.99;101232.28;4152624;28;20021;-68
2023/06/02 01:44:53;;;;;;;;;;;;;;;15.81;56.05;101222.22;4154724;28;20012;-68
2023/06/02 01:46:55;;;;;;;;;;;;;;;15.78;55.74;101228.94;4155654;28;20036;-68
2023/06/02 01:48:57;;;;;;;;;;;;;;;15.75;55.78;101234.75;4156366;28;20020;-69
2023/06/02 01:50:59;;;;;;;;;;;;;;;15.73;55.76;101242.25;4157752;28;20395;-68
2023/06/02 01:53:01;;;;;;;;;;;;;;;15.68;56.26;101234.69;4171707;28;20016;-68
2023/06/02 01:55:04;;;;;;;;;;;;;;;15.68;56.30;101240.13;4155848;28;19972;-68
2023/06/02 01:57:09;;;;;;;;;;;;;;;15.70;56.04;101241.81;4156035;28;20029;-68
2023/06/02 01:59:11;;;;;;;;;;;;;;;15.64;56.23;101240.72;4153812;28;20012;-68
2023/06/02 02:01:15;;;;;;;;;;;;;;;15.62;56.45;101242.81;4160003;28;20463;-68
2023/06/02 02:03:17;;;;;;;;;;;;;;;15.58;56.41;101236.06;4158698;28;20024;-68
2023/06/02 02:05:20;;;;;;;;;;;;;;;15.57;56.39;101229.78;4157114;28;20009;-68
2023/06/02 02:07:23;;;;;;;;;;;;;;;15.54;56.34;101235.63;4156794;28;20024;-68
2023/06/02 02:09:25;;;;;;;;;;;;;;;15.49;56.58;101243.56;4157954;28;20559;-68
2023/06/02 02:11:27;;;;;;;;;;;;;;;15.48;56.76;101239.16;4160063;28;20043;-68
2023/06/02 02:13:30;;;;;;;;;;;;;;;15.42;56.58;101238.06;4155463;28;20004;-68
2023/06/02 02:15:32;;;;;;;;;;;;;;;15.42;56.57;101240.78;4149970;28;20463;-68
2023/06/02 02:17:34;;;;;;;;;;;;;;;15.32;56.92;101243.81;4173576;28;20024;-68
2023/06/02 02:19:37;;;;;;;;;;;;;;;15.27;57.09;101248.19;4161099;28;20036;-68
2023/06/02 02:21:39;;;;;;;;;;;;;;;15.19;57.44;101246.44;4159037;28;20366;-68
2023/06/02 02:23:41;;;;;;;;;;;;;;;15.17;57.18;101253.09;4157525;28;20023;-68
2023/06/02 02:25:43;;;;;;;;;;;;;;;15.14;57.52;101251.63;4152414;28;20017;-68
2023/06/02 02:27:45;;;;;;;;;;;;;;;15.10;57.67;101253.88;4173589;28;20470;-68
2023/06/02 02:29:48;;;;;;;;;;;;;;;15.09;57.39;101252.22;4156345;28;20377;-68
2023/06/02 02:31:50;;;;;;;;;;;;;;;15.10;57.43;101255.78;4155925;28;20028;-68
2023/06/02 02:33:52;;;;;;;;;;;;;;;15.09;57.47;101252.22;4155911;28;20040;-69
2023/06/02 02:35:55;;;;;;;;;;;;;;;15.03;57.28;101255.72;4146402;28;19957;-69
2023/06/02 02:37:57;;;;;;;;;;;;;;;15.00;57.70;101256.09;4155234;28;20011;-68
2023/06/02 02:40:03;;;;;;;;;;;;;;;14.97;57.44;101259.22;4169439;28;20024;-69
2023/06/02 02:42:05;;;;;;;;;;;;;;;14.89;57.52;101254.72;4161710;28;20020;-70
2023/06/02 02:44:08;;;;;;;;;;;;;;;14.83;57.64;101257.38;4139236;28;20020;-68
2023/06/02 02:46:12;;;;;;;;;;;;;;;14.77;57.89;101257.09;4153197;28;20019;-68
2023/06/02 02:48:14;;;;;;;;;;;;;;;14.73;57.89;101257.69;4157465;28;20032;-69
2023/06/02 02:50:16;;;;;;;;;;;;;;;14.72;58.12;101258.72;4161410;28;20009;-69
2023/06/02 02:52:20;;;;;;;;;;;;;;;14.72;57.85;101261.44;4162085;28;20393;-69
2023/06/02 02:54:22;;;;;;;;;;;;;;;14.71;57.92;101265.19;4167245;28;20072;-69
2023/06/02 02:56:27;;;;;;;;;;;;;;;14.72;58.17;101265.00;4157944;28;20014;-69
2023/06/02 02:58:31;;;;;;;;;;;;;;;14.67;57.98;101272.91;4161398;28;20056;-68
2023/06/02 03:00:33;;;;;;;;;;;;;;;14.64;57.83;101270.56;4155294;28;20361;-69
2023/06/02 03:02:36;;;;;;;;;;;;;;;14.61;58.10;101284.53;4174300;28;20015;-68
2023/06/02 03:04:40;;;;;;;;;;;;;;;14.58;58.44;101277.56;4170121;28;20019;-69
2023/06/02 03:06:43;;;;;;;;;;;;;;;14.54;58.28;101280.84;4154997;28;20019;-68
2023/06/02 03:08:45;;;;;;;;;;;;;;;14.48;58.26;101277.03;4172781;28;20020;-69
2023/06/02 03:10:48;;;;;;;;;;;;;;;14.44;58.61;101280.31;4154602;28;20410;-69
2023/06/02 03:12:50;;;;;;;;;;;;;;;14.41;58.86;101279.66;4155498;28;20027;-70
2023/06/02 03:14:53;;;;;;;;;;;;;;;14.40;58.38;101280.69;4152602;28;20459;-70
2023/06/02 03:16:56;;;;;;;;;;;;;;;14.37;58.55;101289.22;4156629;28;20048;-70
2023/06/02 03:19:00;;;;;;;;;;;;;;;14.37;58.68;101286.50;4171700;28;20458;-69
2023/06/02 03:21:05;;;;;;;;;;;;;;;14.35;58.56;101287.72;4152544;28;20055;-69
2023/06/02 03:23:09;;;;;;;;;;;;;;;14.36;58.56;101294.84;4154834;28;20025;-69
2023/06/02 03:25:13;;;;;;;;;;;;;;;14.30;58.84;101298.31;4156041;28;20012;-69
2023/06/02 03:27:15;;;;;;;;;;;;;;;14.30;58.59;101293.72;4171674;28;20043;-69
2023/06/02 03:29:24;;;;;;;;;;;;;;;14.32;58.91;101293.53;4154723;28;20016;-69
2023/06/02 03:31:28;;;;;;;;;;;;;;;14.31;58.48;101284.53;4145950;28;19960;-69
2023/06/02 03:33:30;;;;;;;;;;;;;;;14.28;58.55;101293.06;4169710;28;20021;-69
2023/06/02 03:35:34;;;;;;;;;;;;;;;14.22;58.75;101291.94;4155742;28;20023;-69
2023/06/02 03:37:36;;;;;;;;;;;;;;;14.23;58.69;101287.34;4155823;28;20012;-69
2023/06/02 03:39:38;;;;;;;;;;;;;;;14.25;58.92;101293.44;4155370;28;20016;-69
2023/06/02 03:41:41;;;;;;;;;;;;;;;14.25;58.62;101290.72;4157113;28;20008;-69
2023/06/02 03:43:43;;;;;;;;;;;;;;;14.24;58.96;101295.28;4155645;28;20024;-69
2023/06/02 03:45:46;;;;;;;;;;;;;;;14.26;58.58;101305.16;4157199;28;20028;-69
2023/06/02 03:47:50;;;;;;;;;;;;;;;14.23;58.82;101307.22;4156412;28;20486;-69
2023/06/02 03:49:55;;;;;;;;;;;;;;;14.23;58.93;101309.06;4167555;28;20139;-69
2023/06/02 03:51:58;;;;;;;;;;;;;;;14.23;58.95;101306.34;4168703;28;19925;-69
2023/06/02 03:54:01;;;;;;;;;;;;;;;14.25;58.69;101301.59;4168996;28;20007;-69
2023/06/02 03:56:03;;;;;;;;;;;;;;;14.24;58.91;101300.72;4157016;28;20024;-69
2023/06/02 03:58:05;;;;;;;;;;;;;;;14.24;59.03;101311.59;4173535;28;20023;-69
2023/06/02 04:00:10;;;;;;;;;;;;;;;14.25;58.99;101307.03;4167123;28;20031;-69
2023/06/02 04:02:15;;;;;;;;;;;;;;;14.23;58.91;101314.50;4156175;28;20556;-69
2023/06/02 04:04:17;;;;;;;;;;;;;;;14.19;59.10;101321.34;4156821;28;20089;-69
2023/06/02 04:06:20;;;;;;;;;;;;;;;14.17;59.12;101318.81;4153929;28;20467;-69
2023/06/02 04:08:23;;;;;;;;;;;;;;;14.19;58.97;101316.75;4170404;28;20019;-68
2023/06/02 04:10:25;;;;;;;;;;;;;;;14.22;59.29;101324.53;4171939;28;20447;-69
2023/06/02 04:12:28;;;;;;;;;;;;;;;14.26;59.02;101318.72;4159308;28;20016;-68
2023/06/02 04:14:30;;;;;;;;;;;;;;;14.24;59.07;101329.78;4158097;28;20476;-69
2023/06/02 04:16:34;;;;;;;;;;;;;;;14.24;59.32;101336.06;4174245;28;20020;-69
2023/06/02 04:18:37;;;;;;;;;;;;;;;14.26;59.15;101325.00;4156113;28;20024;-69
2023/06/02 04:20:39;;;;;;;;;;;;;;;14.29;58.97;101338.22;4170812;28;20329;-69
2023/06/02 04:22:42;;;;;;;;;;;;;;;14.32;58.83;101332.41;4155652;28;20364;-69
2023/06/02 04:24:46;;;;;;;;;;;;;;;14.33;58.87;101339.53;4175413;28;20366;-69
2023/06/02 04:26:50;;;;;;;;;;;;;;;14.32;58.89;101337.00;4157851;28;20458;-69
2023/06/02 04:28:53;;;;;;;;;;;;;;;14.30;59.14;101329.03;4155874;28;20020;-69
2023/06/02 04:30:55;;;;;;;;;;;;;;;14.29;59.13;101340.91;4157296;28;20008;-69
2023/06/02 04:32:59;;;;;;;;;;;;;;;14.24;59.23;101336.06;4158283;28;20404;-69
2023/06/02 04:35:02;;;;;;;;;;;;;;;14.24;59.34;101337.94;4156939;28;20036;-69
2023/06/02 04:37:05;;;;;;;;;;;;;;;14.27;59.06;101336.72;4156662;28;20015;-69
2023/06/02 04:39:09;;;;;;;;;;;;;;;14.22;59.36;101338.13;4154394;28;20023;-69
2023/06/02 04:41:12;;;;;;;;;;;;;;;14.23;59.63;101344.38;4158053;28;20024;-69
2023/06/02 04:43:15;;;;;;;;;;;;;;;14.23;59.65;101342.53;4157477;28;20020;-71
2023/06/02 04:45:20;;;;;;;;;;;;;;;14.27;59.67;101342.16;4155614;28;20012;-69
2023/06/02 04:47:24;;;;;;;;;;;;;;;14.27;59.48;101348.44;4173684;28;19964;-69
2023/06/02 04:49:26;;;;;;;;;;;;;;;14.22;59.83;101346.28;4173455;28;20485;-69
2023/06/02 04:51:28;;;;;;;;;;;;;;;14.24;59.69;101346.91;4158477;28;20048;-69
2023/06/02 04:53:30;;;;;;;;;;;;;;;14.26;59.69;101337.75;4172879;28;20027;-69
2023/06/02 04:55:33;;;;;;;;;;;;;;;14.29;59.53;101349.06;4173423;28;20013;-69
2023/06/02 04:57:37;;;;;;;;;;;;;;;14.33;59.67;101341.41;4156566;28;20108;-69
2023/06/02 04:59:39;;;;;;;;;;;;;;;14.36;59.58;101339.16;4157034;28;20040;-69
2023/06/02 05:01:41;;;;;;;;;;;;;;;14.40;59.82;101339.63;4158689;28;19932;-70
2023/06/02 05:03:44;;;;;;;;;;;;;;;14.40;60.00;101342.34;4156363;28;20402;-70
2023/06/02 05:05:46;;;;;;;;;;;;;;;14.42;59.76;101349.28;4157679;28;20032;-69
2023/06/02 05:07:49;;;;;;;;;;;;;;;14.42;60.22;101343.84;4173683;28;20036;-70
2023/06/02 05:09:51;;;;;;;;;;;;;;;14.41;60.30;101355.72;4154151;28;20499;-69
2023/06/02 05:11:53;;;;;;;;;;;;;;;14.44;60.44;101350.97;4156232;28;20027;-69
2023/06/02 05:13:58;;;;;;;;;;;;;;;14.50;59.87;101352.91;4172485;28;20027;-69
2023/06/02 05:16:02;;;;;;;;;;;;;;;14.47;60.01;101354.16;4159714;28;20048;-71
2023/06/02 05:18:04;;;;;;;;;;;;;;;14.52;60.24;101353.59;4155395;28;20020;-70
2023/06/02 05:20:07;;;;;;;;;;;;;;;14.52;60.48;101351.72;4158062;28;20068;-70
2023/06/02 05:22:09;;;;;;;;;;;;;;;14.54;60.48;101356.94;4171532;28;20498;-69
2023/06/02 05:24:11;;;;;;;;;;;;;;;14.53;60.08;101356.13;4135142;28;19972;-70
2023/06/02 05:26:13;;;;;;;;;;;;;;;14.54;59.94;101362.38;4157276;28;20031;-70
2023/06/02 05:28:15;;;;;;;;;;;;;;;14.56;60.24;101365.75;4154675;28;20037;-70
2023/06/02 05:30:20;;;;;;;;;;;;;;;14.59;60.43;101360.81;4171685;28;20012;-70
2023/06/02 05:32:24;;;;;;;;;;;;;;;14.66;60.42;101368.25;4173303;28;20019;-70
2023/06/02 05:34:27;;;;;;;;;;;;;;;14.65;59.69;101359.22;4154931;28;20008;-70
2023/06/02 05:36:30;;;;;;;;;;;;;;;14.63;59.99;101371.34;4153504;28;20020;-70
2023/06/02 05:38:32;;;;;;;;;;;;;;;14.64;60.25;101373.88;4155600;28;20047;-70
2023/06/02 05:40:34;;;;;;;;;;;;;;;14.66;59.67;101374.50;4169501;28;20024;-70
2023/06/02 05:42:36;;;;;;;;;;;;;;;14.67;59.36;101381.66;4153064;28;20023;-70
2023/06/02 05:44:38;;;;;;;;;;;;;;;14.70;59.62;101380.41;4167737;28;20067;-70
2023/06/02 05:46:42;;;;;;;;;;;;;;;14.70;59.41;101381.28;4171740;28;20016;-70
2023/06/02 05:48:44;;;;;;;;;;;;;;;14.71;59.71;101374.78;4171086;28;20015;-69
2023/06/02 05:50:47;;;;;;;;;;;;;;;14.74;59.59;101376.28;4156790;28;20020;-70
2023/06/02 05:52:50;;;;;;;;;;;;;;;14.75;59.42;101380.72;4156025;28;20028;-70
2023/06/02 05:54:52;;;;;;;;;;;;;;;14.76;59.54;101388.69;4171074;28;20019;-69
2023/06/02 05:56:55;;;;;;;;;;;;;;;14.76;60.04;101383.25;4174584;28;20020;-70
2023/06/02 05:58:58;;;;;;;;;;;;;;;14.78;59.67;101386.59;4172929;28;20023;-70
2023/06/02 06:01:01;;;;;;;;;;;;;;;14.81;59.75;101388.09;4155074;28;20060;-71
2023/06/02 06:03:04;;;;;;;;;;;;;;;14.84;59.71;101395.03;4150442;28;20016;-71
2023/06/02 06:05:10;;;;;;;;;;;;;;;14.89;59.44;101389.84;4171502;28;19967;-70
2023/06/02 06:07:12;;;;;;;;;;;;;;;14.93;59.56;101394.72;4150418;28;20027;-71
2023/06/02 06:09:15;;;;;;;;;;;;;;;15.00;59.46;101402.13;4158096;28;20020;-71
2023/06/02 06:11:17;;;;;;;;;;;;;;;15.01;59.51;101398.38;4158034;28;20023;-70
2023/06/02 06:13:21;;;;;;;;;;;;;;;15.04;59.62;101404.28;4153377;28;20348;-70
2023/06/02 06:15:24;;;;;;;;;;;;;;;15.02;59.18;101398.19;4154995;28;20024;-70
2023/06/02 06:17:26;;;;;;;;;;;;;;;15.02;59.21;101400.09;4170991;28;20558;-71
2023/06/02 06:19:31;;;;;;;;;;;;;;;15.01;59.35;101410.09;4168809;28;20020;-71
2023/06/02 06:21:34;;;;;;;;;;;;;;;15.00;59.77;101413.88;4157128;28;20021;-69
2023/06/02 06:23:36;;;;;;;;;;;;;;;15.02;59.79;101416.41;4155232;28;20027;-69
2023/06/02 06:25:39;;;;;;;;;;;;;;;15.01;59.65;101412.81;4155772;28;20616;-69
2023/06/02 06:27:41;;;;;;;;;;;;;;;15.01;59.73;101407.38;4156536;28;20487;-69
2023/06/02 06:29:43;;;;;;;;;;;;;;;15.01;59.66;101411.97;4171904;28;20038;-69
2023/06/02 06:31:45;;;;;;;;;;;;;;;15.02;59.50;101411.78;4153975;28;20040;-69
2023/06/02 06:33:47;;;;;;;;;;;;;;;15.01;59.62;101418.25;4153695;28;20016;-70
2023/06/02 06:35:51;;;;;;;;;;;;;;;14.99;59.78;101414.06;4155408;28;20024;-70
2023/06/02 06:37:53;;;;;;;;;;;;;;;14.99;59.92;101411.34;4155590;28;20023;-69
2023/06/02 06:39:55;;;;;;;;;;;;;;;14.96;59.67;101415.28;4155820;28;20019;-69
2023/06/02 06:41:57;;;;;;;;;;;;;;;14.96;59.74;101418.00;4153139;28;20032;-70
2023/06/02 06:44:11;;;;;;;;;;;;;;;14.95;59.85;101417.16;4155923;28;20016;-70
2023/06/02 06:46:15;;;;;;;;;;;;;;;14.96;59.94;101418.00;4149514;28;20906;-70
2023/06/02 06:48:17;;;;;;;;;;;;;;;14.96;60.38;101416.09;4158953;28;20024;-70
2023/06/02 06:50:19;;;;;;;;;;;;;;;14.98;60.47;101409.66;4147322;28;21215;-70
2023/06/02 06:52:22;;;;;;;;;;;;;;;15.00;60.38;101408.44;4144320;28;20020;-70
2023/06/02 06:54:26;;;;;;;;;;;;;;;15.01;60.19;101417.44;4150937;28;20023;-70
2023/06/02 06:56:28;;;;;;;;;;;;;;;15.03;60.49;101427.09;4145642;28;20028;-70
2023/06/02 06:58:30;;;;;;;;;;;;;;;15.04;60.86;101433.38;4146942;28;20016;-70
2023/06/02 07:00:32;;;;;;;;;;;;;;;15.03;60.41;101437.97;4155251;28;20020;-70
2023/06/02 07:02:34;;;;;;;;;;;;;;;15.04;60.71;101442.34;4156417;28;20367;-70
2023/06/02 07:04:36;;;;;;;;;;;;;;;15.02;61.10;101436.28;4156348;28;20020;-70
2023/06/02 07:06:38;;;;;;;;;;;;;;;14.99;61.25;101439.38;4157908;28;20024;-70
2023/06/02 07:08:41;;;;;;;;;;;;;;;14.98;61.39;101448.56;4158875;28;20064;-70
2023/06/02 07:10:43;;;;;;;;;;;;;;;14.99;61.60;101455.69;4156038;28;20044;-70
2023/06/02 07:12:45;;;;;;;;;;;;;;;14.98;61.97;101458.59;4157397;28;20008;-70
2023/06/02 07:14:48;;;;;;;;;;;;;;;14.96;62.10;101454.19;4156013;28;20044;-70
2023/06/02 07:16:53;;;;;;;;;;;;;;;14.93;62.44;101461.88;4157207;28;20020;-70
2023/06/02 07:18:55;;;;;;;;;;;;;;;14.92;62.45;101458.34;4154020;28;20027;-70
2023/06/02 07:20:57;;;;;;;;;;;;;;;14.96;62.82;101459.63;4152529;28;20394;-70
2023/06/02 07:22:59;;;;;;;;;;;;;;;14.99;62.73;101458.41;4155550;28;20011;-70
2023/06/02 07:25:03;;;;;;;;;;;;;;;15.02;62.79;101452.59;4169125;28;20015;-69
2023/06/02 07:27:06;;;;;;;;;;;;;;;15.05;62.89;101452.22;4155322;28;20028;-70
2023/06/02 07:29:08;;;;;;;;;;;;;;;15.08;62.42;101457.28;4156230;28;20471;-70
2023/06/02 07:31:10;;;;;;;;;;;;;;;15.08;62.61;101451.84;4154551;28;20024;-70
2023/06/02 07:33:12;;;;;;;;;;;;;;;15.12;62.54;101453.16;4155105;28;20015;-70
2023/06/02 07:35:15;;;;;;;;;;;;;;;15.18;62.59;101458.88;4153725;28;20032;-70
2023/06/02 07:37:18;;;;;;;;;;;;;;;15.24;62.56;101458.94;4154932;28;20327;-70
2023/06/02 07:39:20;;;;;;;;;;;;;;;15.27;62.31;101455.00;4153981;28;20019;-70
2023/06/02 07:41:23;;;;;;;;;;;;;;;15.32;62.43;101460.72;4159327;28;20020;-70
2023/06/02 07:43:25;;;;;;;;;;;;;;;15.36;62.10;101458.44;4157239;28;20012;-70
2023/06/02 07:45:27;;;;;;;;;;;;;;;15.37;62.00;101458.25;4155060;28;20003;-70
2023/06/02 07:47:29;;;;;;;;;;;;;;;15.39;61.86;101463.50;4157038;28;20024;-71
2023/06/02 07:49:31;;;;;;;;;;;;;;;15.44;61.77;101466.53;4169505;28;20459;-70
2023/06/02 07:51:34;;;;;;;;;;;;;;;15.52;61.97;101471.84;4155271;28;20024;-71
2023/06/02 07:53:38;;;;;;;;;;;;;;;15.58;61.82;101470.22;4155172;28;20044;-70
2023/06/02 07:55:40;;;;;;;;;;;;;;;15.62;61.72;101466.91;4153096;28;21455;-71
2023/06/02 07:57:44;;;;;;;;;;;;;;;15.65;61.70;101471.97;4155948;28;20015;-70
2023/06/02 07:59:46;;;;;;;;;;;;;;;15.70;61.77;101471.41;4154942;28;20495;-70
2023/06/02 08:01:48;;;;;;;;;;;;;;;15.76;61.84;101457.00;4154228;28;20028;-70
2023/06/02 08:03:50;;;;;;;;;;;;;;;15.82;61.27;101478.06;4165801;28;20027;-70
2023/06/02 08:05:51;;;;;;;;;;;;;;;15.87;61.06;101488.38;4155062;28;20069;-70
2023/06/02 08:07:54;;;;;;;;;;;;;;;15.93;61.02;101479.44;4152118;28;20027;-70
2023/06/02 08:09:56;;;;;;;;;;;;;;;15.97;60.77;101477.16;4151934;28;19967;-71
2023/06/02 08:11:58;;;;;;;;;;;;;;;16.00;60.80;101480.34;4151210;28;20020;-71
2023/06/02 08:14:01;;;;;;;;;;;;;;;15.98;60.95;101482.41;4152309;28;20033;-71
2023/06/02 08:16:04;;;;;;;;;;;;;;;15.97;60.76;101482.59;4149579;28;20340;-71
2023/06/02 08:18:07;;;;;;;;;;;;;;;15.97;61.29;101478.00;4153372;28;20028;-70
2023/06/02 08:20:09;;;;;;;;;;;;;;;15.99;61.21;101478.66;4152429;28;20517;-70
2023/06/02 08:22:11;;;;;;;;;;;;;;;16.02;61.20;101480.16;4149379;28;20012;-71
2023/06/02 08:24:24;;;;;;;;;;;;;;;16.01;60.77;101473.84;4155022;28;20025;-72
2023/06/02 08:26:27;;;;;;;;;;;;;;;16.03;61.09;101479.97;4155765;28;20589;-72
2023/06/02 08:28:29;;;;;;;;;;;;;;;16.04;61.27;101483.50;4151012;28;20471;-72
2023/06/02 08:30:32;;;;;;;;;;;;;;;16.04;61.08;101483.50;4153781;28;20438;-72
2023/06/02 08:32:34;;;;;;;;;;;;;;;16.05;61.09;101485.22;4154707;28;20019;-72
2023/06/02 08:34:37;;;;;;;;;;;;;;;16.07;61.21;101485.00;4154425;28;20032;-71
2023/06/02 08:36:39;;;;;;;;;;;;;;;16.07;61.01;101487.75;4154488;28;20030;-71
2023/06/02 08:38:41;;;;;;;;;;;;;;;16.08;60.86;101483.97;4152430;28;20017;-71
2023/06/02 08:40:43;;;;;;;;;;;;;;;16.09;61.14;101485.66;4154599;28;20016;-71
2023/06/02 08:42:45;;;;;;;;;;;;;;;16.10;61.06;101493.63;4154413;28;20027;-71
2023/06/02 08:44:47;;;;;;;;;;;;;;;16.10;61.16;101481.91;4153479;28;20023;-71
2023/06/02 08:46:50;;;;;;;;;;;;;;;16.14;61.10;101492.19;4154072;28;20017;-71
2023/06/02 08:48:55;;;;;;;;;;;;;;;16.17;61.21;101493.69;4154028;28;20012;-71
2023/06/02 08:50:58;;;;;;;;;;;;;;;16.19;61.09;101494.31;4154505;28;20369;-71
2023/06/02 08:53:00;;;;;;;;;;;;;;;16.19;60.87;101497.91;4153523;28;20487;-71
2023/06/02 08:55:03;;;;;;;;;;;;;;;16.23;61.01;101500.25;4154110;28;20023;-71
2023/06/02 08:57:07;;;;;;;;;;;;;;;16.27;60.94;101498.78;4152276;28;20022;-71
2023/06/02 08:59:09;;;;;;;;;;;;;;;16.30;61.13;101496.53;4157060;28;20358;-72
2023/06/02 09:01:11;;;;;;;;;;;;;;;16.35;61.09;101495.94;4156286;28;20362;-71
2023/06/02 09:03:15;;;;;;;;;;;;;;;16.39;60.83;101498.09;4157540;28;20012;-71
2023/06/02 09:05:17;;;;;;;;;;;;;;;16.44;60.53;101499.38;4154508;28;20009;-72
2023/06/02 09:07:20;;;;;;;;;;;;;;;16.48;60.18;101501.50;4157242;28;20371;-71
2023/06/02 09:09:22;;;;;;;;;;;;;;;16.53;60.44;101507.19;4157202;28;20088;-72
2023/06/02 09:11:25;;;;;;;;;;;;;;;16.55;59.82;101496.09;4157388;28;20033;-72
2023/06/02 09:13:31;;;;;;;;;;;;;;;16.55;59.70;101502.41;4156362;28;20027;-71
2023/06/02 09:15:36;;;;;;;;;;;;;;;16.56;58.74;101505.97;4156715;28;20025;-72
2023/06/02 09:17:38;;;;;;;;;;;;;;;16.60;58.75;101500.94;4157260;28;20028;-71
2023/06/02 09:19:49;;;;;;;;;;;;;;;16.62;58.36;101507.91;4157026;28;20024;-71
2023/06/02 09:21:56;;;;;;;;;;;;;;;16.64;57.86;101500.34;4157459;28;20031;-71
2023/06/02 09:23:58;;;;;;;;;;;;;;;16.65;57.96;101502.06;4156583;28;20020;-71
2023/06/02 09:26:00;;;;;;;;;;;;;;;16.68;57.66;101501.66;4156958;28;20016;-72
2023/06/02 09:28:02;;;;;;;;;;;;;;;16.72;57.72;101508.41;4157131;28;20028;-71
2023/06/02 09:30:05;;;;;;;;;;;;;;;16.76;56.51;101503.38;4156933;28;20008;-71
2023/06/02 09:32:11;;;;;;;;;;;;;;;16.81;56.07;101506.34;4156838;28;20020;-71
2023/06/02 09:34:14;;;;;;;;;;;;;;;16.81;55.56;101511.81;4157231;28;20020;-71
2023/06/02 09:36:29;;;;;;;;;;;;;;;16.84;54.93;101519.59;4156843;28;20020;-72
2023/06/02 09:38:32;;;;;;;;;;;;;;;16.86;54.28;101509.34;4156898;28;20024;-72
2023/06/02 09:40:35;;;;;;;;;;;;;;;16.90;53.03;101507.91;4153494;28;20447;-72
2023/06/02 09:42:43;;;;;;;;;;;;;;;16.93;52.08;101520.31;4156057;28;20032;-71
2023/06/02 09:45:03;;;;;;;;;;;;;;;16.95;51.54;101506.47;4155084;28;20008;-72
2023/06/02 09:47:22;;;;;;;;;;;;;;;16.95;51.00;101504.59;4156628;28;20458;-72
2023/06/02 09:49:24;;;;;;;;;;;;;;;16.98;50.57;101512.38;4155982;28;20012;-72
2023/06/02 09:51:27;;;;;;;;;;;;;;;17.00;50.46;101514.91;4156282;28;20016;-72
2023/06/02 09:53:29;;;;;;;;;;;;;;;17.02;50.45;101510.06;4168033;28;20027;-72
2023/06/02 09:55:32;;;;;;;;;;;;;;;17.00;49.02;101507.53;4156519;28;20023;-69
2023/06/02 09:57:34;;;;;;;;;;;;;;;17.02;49.86;101512.81;4155922;28;20404;-72
2023/06/02 09:59:37;;;;;;;;;;;;;;;17.05;49.80;101509.69;4138122;28;20839;-72
2023/06/02 10:01:39;;;;;;;;;;;;;;;17.06;48.39;101528.56;4158203;28;20028;-72
2023/06/02 10:03:42;;;;;;;;;;;;;;;17.07;46.38;101533.00;4157925;28;20012;-72
2023/06/02 10:06:00;;;;;;;;;;;;;;;17.11;46.14;101527.97;4156272;28;20029;-72
2023/06/02 10:08:15;;;;;;;;;;;;;;;17.14;45.52;101529.47;4156835;28;20020;-71
2023/06/02 10:10:20;;;;;;;;;;;;;;;17.19;46.00;101529.69;4155657;28;20024;-72
2023/06/02 10:12:29;;;;;;;;;;;;;;;17.23;47.13;101528.25;4154892;28;20056;-72
2023/06/02 10:14:35;;;;;;;;;;;;;;;17.29;47.33;101532.91;4155484;28;20058;-72
2023/06/02 10:16:41;;;;;;;;;;;;;;;17.34;45.50;101529.59;4156102;28;20551;-71
2023/06/02 10:19:02;;;;;;;;;;;;;;;17.39;47.08;101530.63;4155831;28;20051;-72
2023/06/02 10:21:05;;;;;;;;;;;;;;;17.44;48.13;101530.03;4157129;28;20028;-72
2023/06/02 10:23:20;;;;;;;;;;;;;;;17.47;48.17;101533.19;4155632;28;20012;-71
2023/06/02 10:25:24;;;;;;;;;;;;;;;17.51;47.22;101528.19;4154768;28;20455;-72
2023/06/02 10:27:27;;;;;;;;;;;;;;;17.54;47.71;101533.25;4156357;28;20423;-72
2023/06/02 10:29:30;;;;;;;;;;;;;;;17.60;47.14;101539.75;4156025;28;20017;-71
2023/06/02 10:31:32;;;;;;;;;;;;;;;17.62;47.14;101534.94;4159481;28;20265;-71